createdAt,value
2023-01-13T00:00:16.388Z,97476.38
2023-01-13T00:02:42.985Z,97468.25
2023-01-13T00:05:10.557Z,97462.25
2023-01-13T00:07:40.132Z,97470.97
2023-01-13T00:10:11.131Z,97468.47
2023-01-13T00:12:42.165Z,97469.38
2023-01-13T00:15:11.085Z,97467.72
2023-01-13T00:17:38.734Z,97474.53
2023-01-13T00:20:06.488Z,97470.22
2023-01-13T00:22:34.917Z,97468.06
2023-01-13T00:25:01.834Z,97457.66
2023-01-13T00:27:29.145Z,97451.31
2023-01-13T00:29:55.673Z,97456.72
2023-01-13T00:32:22.119Z,97449.91
2023-01-13T00:34:48.579Z,97440.47
2023-01-13T00:37:15.207Z,97441.56
2023-01-13T00:39:41.838Z,97443.81
2023-01-13T00:42:26.922Z,97440.47
2023-01-13T00:44:53.451Z,97447.66
2023-01-13T00:47:19.941Z,97434.06
2023-01-13T00:49:46.392Z,97441.81
2023-01-13T00:52:12.935Z,97434.38
2023-01-13T00:54:39.889Z,97432.84
2023-01-13T00:57:06.365Z,97426.88
2023-01-13T00:59:32.937Z,97430.22
2023-01-13T01:01:59.543Z,97422.91
2023-01-13T01:04:26.149Z,97425.16
2023-01-13T01:06:52.673Z,97429.25
2023-01-13T01:09:19.137Z,97427.72
2023-01-13T01:11:45.717Z,97433.09
2023-01-13T01:14:13.824Z,97424.25
2023-01-13T01:16:41.691Z,97416.50
2023-01-13T01:19:08.411Z,97415.00
2023-01-13T01:21:35.240Z,97412.28
2023-01-13T01:24:03.697Z,97412.38
2023-01-13T01:26:31.348Z,97397.00
2023-01-13T01:28:57.941Z,97397.25
2023-01-13T01:31:31.540Z,97391.47
2023-01-13T01:33:59.715Z,97391.47
2023-01-13T01:36:30.012Z,97389.38
2023-01-13T01:38:58.621Z,97385.66
2023-01-13T01:41:30.320Z,97386.47
2023-01-13T01:44:22.722Z,97389.88
2023-01-13T01:46:49.298Z,97375.75
2023-01-13T01:49:34.737Z,97392.69
2023-01-13T01:52:06.664Z,97480.63
2023-01-13T01:54:55.761Z,97477.31
2023-01-13T01:57:42.623Z,97464.44
2023-01-13T02:00:10.192Z,97464.59
2023-01-13T02:02:37.613Z,97481.56
2023-01-13T02:05:04.360Z,97501.19
2023-01-13T02:07:34.268Z,97502.91
2023-01-13T02:10:06.715Z,97504.09
2023-01-13T02:12:34.498Z,97504.53
2023-01-13T02:15:09.972Z,97504.63
2023-01-13T02:18:01.185Z,97491.56
2023-01-13T02:21:12.415Z,97491.69
2023-01-13T02:23:57.283Z,97488.13
2023-01-13T02:26:41.564Z,97485.59
2023-01-13T02:30:07.505Z,97467.31
2023-01-13T02:33:07.196Z,97485.63
2023-01-13T02:36:05.471Z,97487.41
2023-01-13T02:38:42.963Z,97492.53
2023-01-13T02:41:38.943Z,97501.31
2023-01-13T02:44:10.351Z,97501.88
2023-01-13T02:47:06.297Z,97488.88
2023-01-13T02:49:46.593Z,97491.72
2023-01-13T02:52:25.779Z,97489.94
2023-01-13T02:55:01.283Z,97487.72
2023-01-13T02:57:33.866Z,97480.63
2023-01-13T03:00:05.420Z,97475.78
2023-01-13T03:02:32.123Z,97475.66
2023-01-13T03:05:00.711Z,97494.47
2023-01-13T03:08:09.907Z,97496.13
2023-01-13T03:10:56.879Z,97499.78
2023-01-13T03:13:57.561Z,97488.69
2023-01-13T03:17:01.736Z,97488.63
2023-01-13T03:19:57.110Z,97480.16
2023-01-13T03:22:50.415Z,97459.22
2023-01-13T03:25:31.468Z,97465.72
2023-01-13T03:28:05.107Z,97506.09
2023-01-13T03:30:52.552Z,97518.88
2023-01-13T03:33:27.169Z,97514.88
2023-01-13T03:36:03.685Z,97491.69
2023-01-13T03:38:42.871Z,97465.94
2023-01-13T03:41:22.160Z,97459.53
2023-01-13T03:44:19.455Z,97463.84
2023-01-13T03:47:18.280Z,97431.50
2023-01-13T03:49:59.922Z,97447.41
2023-01-13T03:52:34.696Z,97463.13
2023-01-13T03:55:11.782Z,97478.84
2023-01-13T03:58:08.640Z,97476.13
2023-01-13T04:01:19.002Z,97483.94
2023-01-13T04:04:06.068Z,97462.31
2023-01-13T04:06:57.886Z,97464.38
2023-01-13T04:09:41.584Z,97450.41
2023-01-13T04:12:17.003Z,97458.53
2023-01-13T04:14:45.235Z,97465.13
2023-01-13T04:17:12.569Z,97458.53
2023-01-13T04:19:39.114Z,97447.22
2023-01-13T04:22:05.633Z,97442.31
2023-01-13T04:24:32.107Z,97431.72
2023-01-13T04:26:58.617Z,97438.41
2023-01-13T04:29:25.148Z,97463.22
2023-01-13T04:31:51.674Z,97461.34
2023-01-13T04:34:18.185Z,97462.88
2023-01-13T04:36:45.083Z,97463.00
2023-01-13T04:39:11.983Z,97451.97
2023-01-13T04:41:56.957Z,97442.19
2023-01-13T04:44:23.507Z,97443.44
2023-01-13T04:46:49.969Z,97455.91
2023-01-13T04:49:16.510Z,97441.38
2023-01-13T04:51:43.040Z,97438.03
2023-01-13T04:54:12.358Z,97457.44
2023-01-13T04:56:38.861Z,97450.84
2023-01-13T04:59:05.550Z,97453.56
2023-01-13T05:01:32.282Z,97445.50
2023-01-13T05:03:58.810Z,97436.69
2023-01-13T05:06:25.287Z,97440.88
2023-01-13T05:08:51.799Z,97439.31
2023-01-13T05:11:37.058Z,97431.44
2023-01-13T05:14:22.323Z,97439.03
2023-01-13T05:17:01.560Z,97437.78
2023-01-13T05:19:32.966Z,97443.03
2023-01-13T05:22:19.034Z,97438.25
2023-01-13T05:25:04.190Z,97440.13
2023-01-13T05:27:31.962Z,97444.03
2023-01-13T05:29:59.016Z,97454.59
2023-01-13T05:32:27.998Z,97454.28
2023-01-13T05:34:55.795Z,97471.75
2023-01-13T05:37:24.015Z,97470.91
2023-01-13T05:40:09.275Z,97475.97
2023-01-13T05:42:54.633Z,97482.47
2023-01-13T05:45:21.411Z,97476.84
2023-01-13T05:47:48.013Z,97471.50
2023-01-13T05:50:14.963Z,97476.44
2023-01-13T05:52:41.539Z,97459.50
2023-01-13T05:55:08.587Z,97448.41
2023-01-13T05:57:35.659Z,97449.88
2023-01-13T06:00:02.631Z,97459.91
2023-01-13T06:02:29.125Z,97465.34
2023-01-13T06:04:55.599Z,97465.44
2023-01-13T06:07:22.083Z,97466.59
2023-01-13T06:09:48.565Z,97465.56
2023-01-13T06:12:15.125Z,97468.38
2023-01-13T06:14:41.595Z,97475.28
2023-01-13T06:17:14.603Z,97476.75
2023-01-13T06:19:42.313Z,97480.09
2023-01-13T06:22:17.221Z,97478.44
2023-01-13T06:24:48.467Z,97480.09
2023-01-13T06:27:16.568Z,97477.78
2023-01-13T06:29:43.287Z,97483.34
2023-01-13T06:32:18.479Z,97483.22
2023-01-13T06:34:54.889Z,97492.75
2023-01-13T06:37:26.065Z,97492.13
2023-01-13T06:39:58.543Z,97490.34
2023-01-13T06:42:48.134Z,97498.50
2023-01-13T06:45:14.822Z,97491.59
2023-01-13T06:47:41.870Z,97504.16
2023-01-13T06:50:09.687Z,97503.66
2023-01-13T06:52:36.197Z,97500.59
2023-01-13T06:55:03.649Z,97500.28
2023-01-13T06:57:30.202Z,97498.53
2023-01-13T06:59:56.689Z,97506.69
2023-01-13T07:02:23.322Z,97497.19
2023-01-13T07:04:49.842Z,97504.91
2023-01-13T07:07:16.338Z,97502.41
2023-01-13T07:09:42.850Z,97498.94
2023-01-13T07:12:09.338Z,97500.44
2023-01-13T07:15:11.683Z,97516.75
2023-01-13T07:17:38.173Z,97522.66
2023-01-13T07:20:05.430Z,97520.75
2023-01-13T07:22:31.897Z,97518.13
2023-01-13T07:24:58.385Z,97519.16
2023-01-13T07:27:24.837Z,97521.69
2023-01-13T07:29:51.377Z,97518.88
2023-01-13T07:32:17.885Z,97519.59
2023-01-13T07:34:44.367Z,97520.38
2023-01-13T07:37:10.935Z,97518.31
2023-01-13T07:39:37.497Z,97514.81
2023-01-13T07:42:22.766Z,97520.41
2023-01-13T07:44:49.286Z,97509.13
2023-01-13T07:47:15.848Z,97512.88
2023-01-13T07:49:42.327Z,97510.78
2023-01-13T07:52:08.925Z,97523.38
2023-01-13T07:54:40.952Z,97528.19
2023-01-13T07:57:08.412Z,97532.78
2023-01-13T07:59:35.034Z,97536.13
2023-01-13T08:02:01.638Z,97533.22
2023-01-13T08:04:28.336Z,97532.78
2023-01-13T08:06:54.830Z,97530.59
2023-01-13T08:09:21.288Z,97532.38
2023-01-13T08:12:07.793Z,97543.28
2023-01-13T08:14:34.265Z,97537.75
2023-01-13T08:17:00.757Z,97541.28
2023-01-13T08:19:27.254Z,97547.47
2023-01-13T08:21:53.733Z,97551.75
2023-01-13T08:24:20.239Z,97562.66
2023-01-13T08:26:46.742Z,97549.88
2023-01-13T08:29:15.070Z,97555.88
2023-01-13T08:31:41.892Z,97561.41
2023-01-13T08:34:08.624Z,97574.72
2023-01-13T08:36:35.096Z,97576.06
2023-01-13T08:39:01.666Z,97588.44
2023-01-13T08:41:47.145Z,97600.78
2023-01-13T08:44:13.615Z,97602.97
2023-01-13T08:46:41.877Z,97601.09
2023-01-13T08:49:08.600Z,97606.41
2023-01-13T08:51:35.121Z,97605.81
2023-01-13T08:54:02.195Z,97612.50
2023-01-13T08:56:35.205Z,97606.44
2023-01-13T08:59:02.571Z,97610.00
2023-01-13T09:01:30.153Z,97613.97
2023-01-13T09:03:56.744Z,97614.06
2023-01-13T09:06:23.533Z,97611.97
2023-01-13T09:08:50.174Z,97611.53
2023-01-13T09:11:56.649Z,97619.56
2023-01-13T09:14:26.682Z,97619.44
2023-01-13T09:16:53.282Z,97618.13
2023-01-13T09:19:19.795Z,97615.31
2023-01-13T09:21:46.324Z,97620.56
2023-01-13T09:24:13.175Z,97639.28
2023-01-13T09:26:39.780Z,97627.16
2023-01-13T09:29:06.392Z,97639.53
2023-01-13T09:31:35.738Z,97642.25
2023-01-13T09:34:22.845Z,97639.28
2023-01-13T09:36:50.182Z,97633.97
2023-01-13T09:39:18.003Z,97631.53
2023-01-13T09:42:09.204Z,97640.88
2023-01-13T09:44:55.567Z,97638.75
2023-01-13T09:47:29.110Z,97655.22
2023-01-13T09:50:13.959Z,97641.16
2023-01-13T09:52:43.215Z,97644.41
2023-01-13T09:55:38.538Z,97656.47
2023-01-13T09:58:18.404Z,97642.16
2023-01-13T10:01:28.072Z,97638.44
2023-01-13T10:03:55.107Z,97644.59
2023-01-13T10:06:35.898Z,97649.66
2023-01-13T10:09:02.647Z,97641.50
2023-01-13T10:11:58.958Z,97645.09
2023-01-13T10:14:54.781Z,97646.59
2023-01-13T10:17:31.149Z,97636.88
2023-01-13T10:20:17.020Z,97629.97
2023-01-13T10:23:18.865Z,97641.09
2023-01-13T10:25:56.044Z,97636.56
2023-01-13T10:28:23.939Z,97631.56
2023-01-13T10:30:50.535Z,97629.63
2023-01-13T10:33:26.262Z,97626.34
2023-01-13T10:36:21.270Z,97635.78
2023-01-13T10:38:50.394Z,97631.31
2023-01-13T10:41:26.975Z,97624.00
2023-01-13T10:44:19.518Z,97638.88
2023-01-13T10:46:58.346Z,97627.63
2023-01-13T10:49:38.523Z,97618.19
2023-01-13T10:52:27.539Z,97619.03
2023-01-13T10:54:55.711Z,97622.97
2023-01-13T10:57:27.698Z,97630.03
2023-01-13T10:59:55.585Z,97622.50
2023-01-13T11:02:35.749Z,97624.66
2023-01-13T11:05:21.864Z,97621.88
2023-01-13T11:07:52.484Z,97627.13
2023-01-13T11:10:32.494Z,97635.72
2023-01-13T11:13:09.708Z,97628.75
2023-01-13T11:15:57.532Z,97632.66
2023-01-13T11:18:40.307Z,97630.84
2023-01-13T11:21:23.122Z,97618.56
2023-01-13T11:24:10.387Z,97618.19
2023-01-13T11:26:53.562Z,97630.63
2023-01-13T11:29:40.251Z,97652.91
2023-01-13T11:32:17.345Z,97631.47
2023-01-13T11:34:52.346Z,97643.19
2023-01-13T11:37:27.571Z,97641.19
2023-01-13T11:40:05.628Z,97653.41
2023-01-13T11:42:40.080Z,97654.13
2023-01-13T11:45:38.077Z,97650.84
2023-01-13T11:48:05.254Z,97644.31
2023-01-13T11:50:51.132Z,97641.16
2023-01-13T11:53:53.137Z,97654.00
2023-01-13T11:57:12.380Z,97652.53
2023-01-13T12:00:03.049Z,97655.22
2023-01-13T12:03:18.811Z,97651.44
2023-01-13T12:05:59.325Z,97656.97
2023-01-13T12:08:51.983Z,97661.72
2023-01-13T12:12:15.026Z,97649.69
2023-01-13T12:14:44.102Z,97654.28
2023-01-13T12:17:30.056Z,97660.56
2023-01-13T12:19:56.815Z,97659.50
2023-01-13T12:22:35.337Z,97652.31
2023-01-13T12:25:24.177Z,97638.44
2023-01-13T12:28:10.703Z,97666.19
2023-01-13T12:30:57.807Z,97651.28
2023-01-13T12:33:47.137Z,97651.34
2023-01-13T12:37:02.715Z,97656.38
2023-01-13T12:40:12.958Z,97672.16
2023-01-13T12:43:13.311Z,97658.44
2023-01-13T12:45:40.131Z,97637.59
2023-01-13T12:48:06.700Z,97645.19
2023-01-13T12:50:40.685Z,97628.84
2023-01-13T12:53:32.873Z,97632.22
2023-01-13T12:56:25.577Z,97663.50
2023-01-13T12:58:52.030Z,97671.28
2023-01-13T13:01:33.919Z,97680.13
2023-01-13T13:04:09.384Z,97678.47
2023-01-13T13:06:41.837Z,97687.16
2023-01-13T13:09:32.985Z,97687.91
2023-01-13T13:13:10.366Z,97691.50
2023-01-13T13:15:37.540Z,97698.47
2023-01-13T13:18:20.351Z,97698.28
2023-01-13T13:21:08.929Z,97697.53
2023-01-13T13:23:45.755Z,97696.69
2023-01-13T13:26:12.127Z,97695.69
2023-01-13T13:29:08.794Z,97692.09
2023-01-13T13:31:59.143Z,97681.72
2023-01-13T13:35:16.707Z,97694.16
2023-01-13T13:38:28.608Z,97687.97
2023-01-13T13:41:13.891Z,97683.28
2023-01-13T13:44:04.145Z,97681.81
2023-01-13T13:46:47.279Z,97678.44
2023-01-13T13:49:17.152Z,97680.81
2023-01-13T13:52:04.607Z,97686.47
2023-01-13T13:54:32.484Z,97678.41
2023-01-13T13:56:59.303Z,97672.19
2023-01-13T13:59:33.504Z,97674.94
2023-01-13T14:02:02.005Z,97685.03
2023-01-13T14:04:35.382Z,97701.31
2023-01-13T14:07:20.496Z,97717.03
2023-01-13T14:09:54.151Z,97731.72
2023-01-13T14:12:25.361Z,97766.28
2023-01-13T14:14:53.752Z,97773.53
2023-01-13T14:17:27.778Z,97785.16
2023-01-13T14:20:17.861Z,97818.53
2023-01-13T14:22:53.794Z,97813.50
2023-01-13T14:25:50.066Z,97816.81
2023-01-13T14:28:35.895Z,97816.81
2023-01-13T14:31:04.047Z,97818.22
2023-01-13T14:33:39.317Z,97813.16
2023-01-13T14:36:14.626Z,97826.88
2023-01-13T14:38:44.271Z,97849.28
2023-01-13T14:41:18.011Z,97830.53
2023-01-13T14:43:47.167Z,97843.78
2023-01-13T14:46:15.173Z,97835.41
2023-01-13T14:48:46.940Z,97836.72
2023-01-13T14:51:25.176Z,97834.81
2023-01-13T14:53:52.578Z,97842.78
2023-01-13T14:56:40.466Z,97848.84
2023-01-13T14:59:48.260Z,97853.88
2023-01-13T15:02:29.980Z,97868.47
2023-01-13T15:05:01.228Z,97863.22
2023-01-13T15:07:31.791Z,97868.34
2023-01-13T15:10:04.571Z,97867.22
2023-01-13T15:12:39.405Z,97865.47
2023-01-13T15:15:28.878Z,97881.91
2023-01-13T15:17:55.703Z,97888.44
2023-01-13T15:20:24.273Z,97885.69
2023-01-13T15:22:52.522Z,97881.25
2023-01-13T15:25:20.053Z,97891.59
2023-01-13T15:27:50.877Z,97893.47
2023-01-13T15:30:22.477Z,97900.38
2023-01-13T15:32:48.958Z,97897.94
2023-01-13T15:35:20.714Z,97898.22
2023-01-13T15:37:49.082Z,97894.47
2023-01-13T15:40:25.409Z,97907.84
2023-01-13T15:43:10.312Z,97914.91
2023-01-13T15:45:56.587Z,97914.97
2023-01-13T15:48:27.844Z,97908.06
2023-01-13T15:50:54.348Z,97906.50
2023-01-13T15:53:21.007Z,97913.13
2023-01-13T15:55:53.479Z,97914.09
2023-01-13T15:58:26.085Z,97915.66
2023-01-13T16:00:53.704Z,97917.13
2023-01-13T16:03:20.279Z,97934.16
2023-01-13T16:05:46.875Z,97932.16
2023-01-13T16:08:18.977Z,97936.78
2023-01-13T16:10:46.810Z,97934.13
2023-01-13T16:13:14.941Z,97946.69
2023-01-13T16:15:50.571Z,97942.25
2023-01-13T16:18:25.877Z,97946.34
2023-01-13T16:20:55.002Z,97942.69
2023-01-13T16:23:22.631Z,97943.91
2023-01-13T16:25:50.895Z,97949.03
2023-01-13T16:28:28.088Z,97969.13
2023-01-13T16:30:54.864Z,97957.97
2023-01-13T16:33:21.382Z,97969.16
2023-01-13T16:36:10.504Z,97979.47
2023-01-13T16:38:34.288Z,98001.28
2023-01-13T16:41:00.783Z,97996.72
2023-01-13T16:43:27.770Z,97998.22
2023-01-13T16:45:54.477Z,97989.22
2023-01-13T16:48:22.617Z,97994.25
2023-01-13T16:50:49.203Z,97998.56
2023-01-13T16:53:15.714Z,98013.69
2023-01-13T16:55:43.099Z,98025.59
2023-01-13T16:58:20.632Z,98034.06
2023-01-13T17:00:48.143Z,98045.34
2023-01-13T17:03:16.565Z,98037.69
2023-01-13T17:05:49.320Z,98043.66
2023-01-13T17:08:18.002Z,98039.13
2023-01-13T17:10:47.850Z,98034.81
2023-01-13T17:13:16.985Z,98038.09
2023-01-13T17:15:45.151Z,98043.94
2023-01-13T17:18:13.131Z,98038.44
2023-01-13T17:20:39.598Z,98033.22
2023-01-13T17:23:06.085Z,98027.22
2023-01-13T17:25:32.539Z,98050.06
2023-01-13T17:27:59.057Z,98048.28
2023-01-13T17:30:25.552Z,98054.06
2023-01-13T17:32:52.066Z,98057.09
2023-01-13T17:35:22.869Z,98068.72
2023-01-13T17:37:49.415Z,98043.34
2023-01-13T17:40:16.996Z,98086.63
2023-01-13T17:42:43.466Z,98098.16
2023-01-13T17:45:12.063Z,98101.00
2023-01-13T17:47:38.707Z,98099.19
2023-01-13T17:50:06.065Z,98103.59
2023-01-13T17:52:34.352Z,98100.19
2023-01-13T17:55:00.881Z,98105.47
2023-01-13T17:57:27.529Z,98110.56
2023-01-13T17:59:54.053Z,98108.88
2023-01-13T18:02:20.600Z,98105.53
2023-01-13T18:04:47.145Z,98110.00
2023-01-13T18:07:13.679Z,98111.50
2023-01-13T18:09:40.223Z,98111.88
2023-01-13T18:12:06.848Z,98114.41
2023-01-13T18:14:34.456Z,98121.13
2023-01-13T18:17:01.136Z,98115.72
2023-01-13T18:19:46.191Z,98120.97
2023-01-13T18:22:32.473Z,98120.97
2023-01-13T18:25:17.624Z,98125.81
2023-01-13T18:27:44.606Z,98128.81
2023-01-13T18:30:12.532Z,98135.75
2023-01-13T18:32:39.616Z,98138.09
2023-01-13T18:35:10.486Z,98135.31
2023-01-13T18:37:40.460Z,98138.22
2023-01-13T18:40:11.696Z,98155.19
2023-01-13T18:42:58.810Z,98152.81
2023-01-13T18:45:27.862Z,98157.59
2023-01-13T18:47:57.757Z,98159.53
2023-01-13T18:50:24.605Z,98171.69
2023-01-13T18:52:52.087Z,98165.44
2023-01-13T18:55:18.827Z,98170.56
2023-01-13T18:57:45.637Z,98166.06
2023-01-13T19:00:17.448Z,98162.38
2023-01-13T19:02:46.886Z,98163.44
2023-01-13T19:05:14.318Z,98170.22
2023-01-13T19:07:40.852Z,98169.56
2023-01-13T19:10:09.672Z,98171.56
2023-01-13T19:12:36.672Z,98178.38
2023-01-13T19:15:03.487Z,98174.06
2023-01-13T19:17:34.984Z,98183.59
2023-01-13T19:20:04.288Z,98185.00
2023-01-13T19:22:34.129Z,98190.06
2023-01-13T19:25:02.940Z,98199.25
2023-01-13T19:27:29.955Z,98200.91
2023-01-13T19:30:01.785Z,98201.75
2023-01-13T19:32:30.696Z,98209.63
2023-01-13T19:34:59.484Z,98211.41
2023-01-13T19:37:30.389Z,98211.41
2023-01-13T19:40:00.468Z,98225.97
2023-01-13T19:42:48.829Z,98230.22
2023-01-13T19:45:29.222Z,98225.75
2023-01-13T19:47:57.679Z,98224.66
2023-01-13T19:50:25.190Z,98230.28
2023-01-13T19:52:52.105Z,98229.72
2023-01-13T19:55:19.740Z,98229.06
2023-01-13T19:57:46.358Z,98227.59
2023-01-13T20:00:16.706Z,98228.16
2023-01-13T20:02:49.015Z,98235.56
2023-01-13T20:05:21.248Z,98232.06
2023-01-13T20:07:50.640Z,98241.63
2023-01-13T20:10:20.542Z,98248.72
2023-01-13T20:12:47.040Z,98243.59
2023-01-13T20:15:14.013Z,98241.63
2023-01-13T20:17:41.417Z,98239.09
2023-01-13T20:20:10.034Z,98241.31
2023-01-13T20:22:40.197Z,98246.56
2023-01-13T20:25:08.816Z,98253.06
2023-01-13T20:27:36.466Z,98267.03
2023-01-13T20:30:06.307Z,98261.53
2023-01-13T20:32:32.841Z,98268.72
2023-01-13T20:34:59.325Z,98265.47
2023-01-13T20:37:26.290Z,98268.38
2023-01-13T20:39:52.976Z,98272.97
2023-01-13T20:42:38.139Z,98272.22
2023-01-13T20:45:05.778Z,98265.88
2023-01-13T20:47:32.419Z,98273.91
2023-01-13T20:49:59.212Z,98278.56
2023-01-13T20:52:26.473Z,98277.47
2023-01-13T20:54:53.054Z,98275.75
2023-01-13T20:57:19.536Z,98279.88
2023-01-13T20:59:46.580Z,98283.09
2023-01-13T21:02:15.841Z,98281.59
2023-01-13T21:04:42.878Z,98276.53
2023-01-13T21:07:09.956Z,98278.13
2023-01-13T21:09:37.899Z,98281.38
2023-01-13T21:12:23.840Z,98282.50
2023-01-13T21:15:09.130Z,98280.91
2023-01-13T21:17:54.811Z,98282.25
2023-01-13T21:20:21.551Z,98295.78
2023-01-13T21:22:49.249Z,98289.50
2023-01-13T21:25:17.646Z,98301.59
2023-01-13T21:27:44.206Z,98293.56
2023-01-13T21:30:14.669Z,98302.25
2023-01-13T21:32:45.564Z,98302.25
2023-01-13T21:35:14.457Z,98307.41
2023-01-13T21:37:43.531Z,98310.41
2023-01-13T21:40:13.838Z,98307.00
2023-01-13T21:42:58.921Z,98301.94
2023-01-13T21:45:44.210Z,98310.56
2023-01-13T21:48:10.826Z,98309.06
2023-01-13T21:50:38.179Z,98302.78
2023-01-13T21:53:07.212Z,98310.47
2023-01-13T21:55:36.592Z,98320.88
2023-01-13T21:58:15.230Z,98313.09
2023-01-13T22:00:44.659Z,98318.72
2023-01-13T22:03:14.596Z,98320.22
2023-01-13T22:05:41.683Z,98317.72
2023-01-13T22:08:08.624Z,98315.84
2023-01-13T22:10:35.719Z,98319.22
2023-01-13T22:13:23.845Z,98329.31
2023-01-13T22:15:50.419Z,98321.03
2023-01-13T22:18:18.180Z,98328.22
2023-01-13T22:20:45.350Z,98326.63
2023-01-13T22:23:12.087Z,98337.44
2023-01-13T22:25:38.565Z,98342.84
2023-01-13T22:28:06.029Z,98343.34
2023-01-13T22:30:33.220Z,98337.25
2023-01-13T22:33:00.294Z,98337.50
2023-01-13T22:35:26.957Z,98340.47
2023-01-13T22:37:53.437Z,98348.16
2023-01-13T22:40:20.128Z,98356.69
2023-01-13T22:42:46.587Z,98361.00
2023-01-13T22:45:14.430Z,98355.00
2023-01-13T22:47:41.056Z,98359.78
2023-01-13T22:50:09.866Z,98366.06
2023-01-13T22:52:36.482Z,98365.03
2023-01-13T22:55:04.081Z,98362.41
2023-01-13T22:57:46.496Z,98372.84
2023-01-13T23:00:14.944Z,98379.28
2023-01-13T23:02:41.662Z,98381.97
2023-01-13T23:05:08.660Z,98377.16
2023-01-13T23:07:35.607Z,98385.94
2023-01-13T23:10:02.647Z,98383.22
2023-01-13T23:12:29.139Z,98389.22
2023-01-13T23:14:55.577Z,98391.75
2023-01-13T23:17:22.075Z,98392.88
2023-01-13T23:19:48.507Z,98396.91
2023-01-13T23:22:15.528Z,98398.09
2023-01-13T23:24:42.038Z,98408.03
2023-01-13T23:27:08.476Z,98403.31
2023-01-13T23:29:34.961Z,98403.81
2023-01-13T23:32:01.447Z,98406.88
2023-01-13T23:34:28.022Z,98400.97
2023-01-13T23:36:54.544Z,98404.31
2023-01-13T23:39:21.085Z,98402.13
2023-01-13T23:41:47.508Z,98398.34
2023-01-13T23:44:13.995Z,98399.09
2023-01-13T23:46:40.636Z,98405.84
2023-01-13T23:49:07.270Z,98407.38
2023-01-13T23:51:33.922Z,98403.25
2023-01-13T23:54:00.559Z,98399.09
2023-01-13T23:56:30.912Z,98408.44
2023-01-13T23:58:57.948Z,98418.03
